Arnopolis, Brazil
Current Conditions -  °F | °C
As of 11:00 PM on Monday 22 Dec 2014 (Local Time) from SBFL Reporting Station
Broken Clouds Broken Clouds  
Wind Chill: 73°   Ceiling: 8000
Heat Index: 73°   Visibility: 6mi
Dew Point: 64°   Wind: 16mph
Humidity: 73%   Direction: 200°SSW
Pressure: 30"   Gusts: NA
Location:  27.61°S, 49.44°W
Report Text: SBFL 230100Z 20014KT 9999 SCT020 BKN080 23/18 Q1016
Loading
Personal Weather Stations






























Interactive Weather Map New forecast layout! Learn more

10-Day Weather Forecast

Advertisements
Track Severe Weather on mobile